UKV21CS KMCO-KFLL
Flight info
| Callsign | UKV21CS |
|---|---|
| Flight time | 0h 36m |
| Altitude | 25000 |
| Route | DDANY3 JIPOD CUUDA3 |
| Aircraft | A321/M-SDE3FGIKRWXY/S |
Departure
| Time | 2026-05-05 18:33 |
|---|---|
| Airport | Orlando International Airport (KMCO) |
Arrival
| Time | 2026-05-05 19:10 |
|---|---|
| Airport | Fort Lauderdale Hollywood International Airport (KFLL) |
| Time | Latitude | Longitude | Altitude | Speed | Heading |
|---|---|---|---|---|---|
| 2026-05-05 18:15 | 28.43510 | -81.30037 | 101 ft | 0 kts | 261° |
| 2026-05-05 18:25 | 28.43512 | -81.30015 | 100 ft | 4 kts | 261° |
| 2026-05-05 18:25 | 28.43518 | -81.29985 | 99 ft | 4 kts | 252° |
| 2026-05-05 18:26 | 28.43523 | -81.29967 | 99 ft | 1 kts | 249° |
| 2026-05-05 18:26 | 28.43524 | -81.29965 | 98 ft | 0 kts | 249° |
| 2026-05-05 18:28 | 28.43512 | -81.29975 | 99 ft | 5 kts | 205° |
| 2026-05-05 18:28 | 28.43456 | -81.29923 | 100 ft | 14 kts | 128° |
| 2026-05-05 18:28 | 28.43369 | -81.29884 | 101 ft | 13 kts | 171° |
| 2026-05-05 18:29 | 28.43319 | -81.29809 | 103 ft | 12 kts | 147° |
| 2026-05-05 18:29 | 28.43221 | -81.29803 | 103 ft | 19 kts | 179° |
| 2026-05-05 18:29 | 28.43083 | -81.29801 | 103 ft | 21 kts | 180° |
| 2026-05-05 18:29 | 28.42897 | -81.29803 | 103 ft | 29 kts | 177° |
| 2026-05-05 18:30 | 28.42703 | -81.29796 | 103 ft | 28 kts | 178° |
| 2026-05-05 18:30 | 28.42507 | -81.29793 | 103 ft | 29 kts | 179° |
| 2026-05-05 18:30 | 28.42305 | -81.29793 | 102 ft | 29 kts | 180° |
| 2026-05-05 18:30 | 28.42097 | -81.29791 | 102 ft | 31 kts | 179° |
| 2026-05-05 18:31 | 28.41881 | -81.29788 | 102 ft | 31 kts | 179° |
| 2026-05-05 18:31 | 28.41662 | -81.29790 | 102 ft | 32 kts | 181° |
| 2026-05-05 18:31 | 28.41441 | -81.29787 | 101 ft | 32 kts | 179° |
| 2026-05-05 18:31 | 28.41218 | -81.29782 | 101 ft | 32 kts | 179° |
| 2026-05-05 18:32 | 28.40996 | -81.29781 | 100 ft | 33 kts | 179° |
| 2026-05-05 18:32 | 28.40828 | -81.29757 | 100 ft | 13 kts | 124° |
| 2026-05-05 18:32 | 28.40821 | -81.29631 | 99 ft | 19 kts | 89° |
| 2026-05-05 18:32 | 28.40908 | -81.29560 | 98 ft | 18 kts | 359° |
| 2026-05-05 18:33 | 28.41132 | -81.29563 | 100 ft | 63 kts | 0° |
| 2026-05-05 18:33 | 28.41805 | -81.29569 | 105 ft | 128 kts | 359° |
| 2026-05-05 18:33 | 28.42869 | -81.29583 | 165 ft | 171 kts | 359° |
| 2026-05-05 18:33 | 28.44048 | -81.29628 | 924 ft | 169 kts | 1° |
| 2026-05-05 18:34 | 28.45173 | -81.29314 | 1728 ft | 168 kts | 33° |
| 2026-05-05 18:34 | 28.46026 | -81.28349 | 2377 ft | 184 kts | 53° |
| 2026-05-05 18:34 | 28.46850 | -81.27106 | 2818 ft | 209 kts | 53° |
| 2026-05-05 18:34 | 28.47768 | -81.25710 | 3310 ft | 233 kts | 53° |
| 2026-05-05 18:35 | 28.48790 | -81.24157 | 3813 ft | 257 kts | 53° |
| 2026-05-05 18:35 | 28.49846 | -81.22467 | 4542 ft | 267 kts | 62° |
| 2026-05-05 18:35 | 28.50381 | -81.20437 | 5397 ft | 272 kts | 87° |
| 2026-05-05 18:35 | 28.50220 | -81.18276 | 6245 ft | 278 kts | 98° |
| 2026-05-05 18:36 | 28.49935 | -81.16030 | 6743 ft | 299 kts | 99° |
| 2026-05-05 18:36 | 28.49618 | -81.13614 | 7246 ft | 316 kts | 99° |
| 2026-05-05 18:36 | 28.49293 | -81.11115 | 7983 ft | 324 kts | 99° |
| 2026-05-05 18:36 | 28.48963 | -81.08553 | 8761 ft | 331 kts | 100° |
| 2026-05-05 18:37 | 28.48335 | -81.06020 | 9502 ft | 337 kts | 116° |
| 2026-05-05 18:37 | 28.47074 | -81.03775 | 10250 ft | 340 kts | 134° |
| 2026-05-05 18:37 | 28.45309 | -81.01936 | 10705 ft | 354 kts | 143° |
| 2026-05-05 18:37 | 28.43355 | -81.00143 | 10908 ft | 377 kts | 144° |
| 2026-05-05 18:38 | 28.41238 | -80.98239 | 11079 ft | 397 kts | 144° |
| 2026-05-05 18:38 | 28.39041 | -80.96267 | 11568 ft | 406 kts | 144° |
| 2026-05-05 18:38 | 28.36812 | -80.94256 | 12138 ft | 412 kts | 143° |
| 2026-05-05 18:38 | 28.34557 | -80.92211 | 12692 ft | 418 kts | 143° |
| 2026-05-05 18:39 | 28.32269 | -80.90131 | 13250 ft | 423 kts | 143° |
| 2026-05-05 18:39 | 28.30030 | -80.87930 | 13806 ft | 429 kts | 136° |
| 2026-05-05 18:39 | 28.28104 | -80.85312 | 14273 ft | 436 kts | 126° |
| 2026-05-05 18:39 | 28.26581 | -80.82320 | 14747 ft | 441 kts | 115° |
| 2026-05-05 18:40 | 28.25403 | -80.79098 | 15216 ft | 444 kts | 112° |
| 2026-05-05 18:40 | 28.24234 | -80.75837 | 15723 ft | 448 kts | 112° |
| 2026-05-05 18:40 | 28.23051 | -80.72555 | 16201 ft | 451 kts | 112° |
| 2026-05-05 18:40 | 28.21873 | -80.69285 | 16661 ft | 455 kts | 112° |
| 2026-05-05 18:41 | 28.20675 | -80.65944 | 17124 ft | 458 kts | 111° |
| 2026-05-05 18:41 | 28.19514 | -80.62568 | 17585 ft | 462 kts | 110° |
| 2026-05-05 18:41 | 28.18385 | -80.59139 | 18041 ft | 465 kts | 109° |
| 2026-05-05 18:41 | 28.17272 | -80.55679 | 18471 ft | 469 kts | 109° |
| 2026-05-05 18:42 | 28.16156 | -80.52195 | 18834 ft | 473 kts | 109° |
| 2026-05-05 18:42 | 28.15018 | -80.48674 | 19170 ft | 477 kts | 109° |
| 2026-05-05 18:42 | 28.13856 | -80.45131 | 19516 ft | 481 kts | 110° |
| 2026-05-05 18:42 | 28.12667 | -80.41572 | 19860 ft | 485 kts | 111° |
| 2026-05-05 18:43 | 28.11143 | -80.38150 | 20190 ft | 489 kts | 122° |
| 2026-05-05 18:43 | 28.09114 | -80.35055 | 20514 ft | 491 kts | 133° |
| 2026-05-05 18:43 | 28.06645 | -80.32372 | 20832 ft | 492 kts | 143° |
| 2026-05-05 18:43 | 28.03815 | -80.30198 | 21152 ft | 492 kts | 154° |
| 2026-05-05 18:44 | 28.00711 | -80.28611 | 21442 ft | 489 kts | 164° |
| 2026-05-05 18:44 | 27.97483 | -80.27355 | 21757 ft | 492 kts | 165° |
| 2026-05-05 18:44 | 27.94234 | -80.26099 | 22073 ft | 495 kts | 165° |
| 2026-05-05 18:44 | 27.90973 | -80.24834 | 22374 ft | 497 kts | 165° |
| 2026-05-05 18:45 | 27.87691 | -80.23555 | 22670 ft | 500 kts | 165° |
| 2026-05-05 18:45 | 27.84393 | -80.22265 | 22965 ft | 503 kts | 165° |
| 2026-05-05 18:45 | 27.81079 | -80.20969 | 23242 ft | 505 kts | 165° |
| 2026-05-05 18:45 | 27.77791 | -80.19688 | 23506 ft | 507 kts | 166° |
| 2026-05-05 18:46 | 27.74441 | -80.18384 | 23746 ft | 510 kts | 166° |
| 2026-05-05 18:46 | 27.71081 | -80.17074 | 23954 ft | 512 kts | 165° |
| 2026-05-05 18:46 | 27.67707 | -80.15760 | 24191 ft | 514 kts | 165° |
| 2026-05-05 18:46 | 27.64318 | -80.14442 | 24408 ft | 516 kts | 165° |
| 2026-05-05 18:47 | 27.60914 | -80.13118 | 24631 ft | 518 kts | 165° |
| 2026-05-05 18:47 | 27.57504 | -80.11755 | 24860 ft | 521 kts | 164° |
| 2026-05-05 18:47 | 27.54091 | -80.10351 | 25034 ft | 522 kts | 164° |
| 2026-05-05 18:47 | 27.50680 | -80.08924 | 25087 ft | 525 kts | 163° |
| 2026-05-05 18:48 | 27.47245 | -80.07479 | 25088 ft | 527 kts | 163° |
| 2026-05-05 18:48 | 27.43810 | -80.06042 | 25083 ft | 527 kts | 164° |
| 2026-05-05 18:48 | 27.40368 | -80.04612 | 25083 ft | 527 kts | 164° |
| 2026-05-05 18:48 | 27.36916 | -80.03236 | 25081 ft | 526 kts | 166° |
| 2026-05-05 18:49 | 27.33422 | -80.02022 | 25080 ft | 524 kts | 168° |
| 2026-05-05 18:49 | 27.29907 | -80.00952 | 25081 ft | 523 kts | 170° |
| 2026-05-05 18:49 | 27.26379 | -79.99964 | 25082 ft | 523 kts | 171° |
| 2026-05-05 18:49 | 27.22848 | -79.98949 | 25079 ft | 524 kts | 169° |
| 2026-05-05 18:50 | 27.19340 | -79.97822 | 25077 ft | 525 kts | 167° |
| 2026-05-05 18:50 | 27.15856 | -79.96586 | 25077 ft | 526 kts | 166° |
| 2026-05-05 18:50 | 27.12431 | -79.95299 | 25077 ft | 526 kts | 165° |
| 2026-05-05 18:50 | 27.08963 | -79.93970 | 25053 ft | 526 kts | 165° |
| 2026-05-05 18:51 | 27.05498 | -79.92638 | 25059 ft | 526 kts | 165° |
| 2026-05-05 18:51 | 27.02048 | -79.91266 | 25064 ft | 527 kts | 164° |
| 2026-05-05 18:51 | 26.98619 | -79.89865 | 24955 ft | 518 kts | 164° |
| 2026-05-05 18:51 | 26.95304 | -79.88490 | 24818 ft | 498 kts | 164° |
| 2026-05-05 18:52 | 26.92117 | -79.87168 | 24701 ft | 480 kts | 164° |
| 2026-05-05 18:52 | 26.89047 | -79.85904 | 24554 ft | 457 kts | 165° |
| 2026-05-05 18:52 | 26.86114 | -79.84709 | 24008 ft | 441 kts | 165° |
| 2026-05-05 18:52 | 26.83254 | -79.83561 | 23235 ft | 432 kts | 165° |
| 2026-05-05 18:53 | 26.80445 | -79.82443 | 22366 ft | 425 kts | 165° |
| 2026-05-05 18:53 | 26.77681 | -79.81347 | 21564 ft | 418 kts | 165° |
| 2026-05-05 18:53 | 26.74965 | -79.80268 | 20783 ft | 411 kts | 165° |
| 2026-05-05 18:53 | 26.72248 | -79.79419 | 20031 ft | 399 kts | 175° |
| 2026-05-05 18:54 | 26.69533 | -79.79221 | 19433 ft | 381 kts | 188° |
| 2026-05-05 18:54 | 26.66975 | -79.79616 | 18886 ft | 364 kts | 199° |
| 2026-05-05 18:54 | 26.64609 | -79.80472 | 18194 ft | 354 kts | 206° |
| 2026-05-05 18:54 | 26.62304 | -79.81415 | 17423 ft | 350 kts | 205° |
| 2026-05-05 18:55 | 26.60027 | -79.82348 | 16735 ft | 346 kts | 205° |
| 2026-05-05 18:55 | 26.57782 | -79.83267 | 16086 ft | 341 kts | 205° |
| 2026-05-05 18:55 | 26.55593 | -79.84160 | 15433 ft | 337 kts | 205° |
| 2026-05-05 18:55 | 26.53439 | -79.85088 | 14975 ft | 326 kts | 206° |
| 2026-05-05 18:56 | 26.51375 | -79.86041 | 14474 ft | 318 kts | 207° |
| 2026-05-05 18:56 | 26.49354 | -79.87008 | 13917 ft | 313 kts | 208° |
| 2026-05-05 18:56 | 26.47369 | -79.87966 | 13288 ft | 309 kts | 207° |
| 2026-05-05 18:56 | 26.45406 | -79.88910 | 12651 ft | 305 kts | 207° |
| 2026-05-05 18:57 | 26.43461 | -79.89838 | 12030 ft | 302 kts | 207° |
| 2026-05-05 18:57 | 26.41536 | -79.90749 | 11412 ft | 299 kts | 206° |
| 2026-05-05 18:57 | 26.39629 | -79.91648 | 10799 ft | 296 kts | 206° |
| 2026-05-05 18:57 | 26.37777 | -79.92611 | 10195 ft | 291 kts | 213° |
| 2026-05-05 18:58 | 26.36038 | -79.93736 | 9545 ft | 288 kts | 212° |
| 2026-05-05 18:58 | 26.34306 | -79.94850 | 8863 ft | 286 kts | 212° |
| 2026-05-05 18:58 | 26.32589 | -79.95951 | 8175 ft | 284 kts | 212° |
| 2026-05-05 18:58 | 26.30882 | -79.97043 | 7501 ft | 282 kts | 212° |
| 2026-05-05 18:59 | 26.29193 | -79.98123 | 7036 ft | 275 kts | 213° |
| 2026-05-05 18:59 | 26.27531 | -79.99189 | 6875 ft | 277 kts | 212° |
| 2026-05-05 18:59 | 26.25860 | -80.00263 | 6691 ft | 278 kts | 211° |
| 2026-05-05 18:59 | 26.24111 | -80.01393 | 6545 ft | 318 kts | 212° |
| 2026-05-05 19:00 | 26.22115 | -80.02688 | 6386 ft | 338 kts | 212° |
| 2026-05-05 19:00 | 26.20138 | -80.04007 | 6212 ft | 322 kts | 218° |
| 2026-05-05 19:00 | 26.18537 | -80.05625 | 6085 ft | 302 kts | 232° |
| 2026-05-05 19:00 | 26.17437 | -80.07501 | 5956 ft | 285 kts | 246° |
| 2026-05-05 19:01 | 26.16763 | -80.09516 | 5795 ft | 272 kts | 253° |
| 2026-05-05 19:01 | 26.16175 | -80.11491 | 5506 ft | 266 kts | 252° |
| 2026-05-05 19:01 | 26.15592 | -80.13432 | 5147 ft | 263 kts | 252° |
| 2026-05-05 19:01 | 26.15127 | -80.15382 | 4784 ft | 259 kts | 262° |
| 2026-05-05 19:02 | 26.15022 | -80.17376 | 4301 ft | 259 kts | 271° |
| 2026-05-05 19:02 | 26.15038 | -80.19400 | 3771 ft | 264 kts | 271° |
| 2026-05-05 19:02 | 26.15050 | -80.21444 | 3344 ft | 264 kts | 271° |
| 2026-05-05 19:02 | 26.15059 | -80.23485 | 3037 ft | 263 kts | 271° |
| 2026-05-05 19:03 | 26.15067 | -80.25529 | 3004 ft | 265 kts | 271° |
| 2026-05-05 19:03 | 26.15086 | -80.27526 | 3003 ft | 250 kts | 271° |
| 2026-05-05 19:03 | 26.15104 | -80.29477 | 3007 ft | 255 kts | 271° |
| 2026-05-05 19:03 | 26.15107 | -80.31455 | 3013 ft | 255 kts | 270° |
| 2026-05-05 19:04 | 26.15095 | -80.33366 | 3002 ft | 238 kts | 270° |
| 2026-05-05 19:04 | 26.14987 | -80.35162 | 3003 ft | 230 kts | 255° |
| 2026-05-05 19:04 | 26.14195 | -80.36644 | 2998 ft | 221 kts | 220° |
| 2026-05-05 19:04 | 26.12888 | -80.37507 | 3004 ft | 218 kts | 202° |
| 2026-05-05 19:05 | 26.11410 | -80.37792 | 3003 ft | 217 kts | 176° |
| 2026-05-05 19:05 | 26.09952 | -80.37409 | 2995 ft | 216 kts | 153° |
| 2026-05-05 19:05 | 26.08746 | -80.36433 | 2999 ft | 215 kts | 130° |
| 2026-05-05 19:05 | 26.07988 | -80.35046 | 2998 ft | 213 kts | 108° |
| 2026-05-05 19:06 | 26.07764 | -80.33424 | 2844 ft | 212 kts | 90° |
| 2026-05-05 19:06 | 26.07761 | -80.31788 | 2605 ft | 211 kts | 89° |
| 2026-05-05 19:06 | 26.07760 | -80.30149 | 2337 ft | 212 kts | 89° |
| 2026-05-05 19:06 | 26.07754 | -80.28528 | 2085 ft | 206 kts | 89° |
| 2026-05-05 19:07 | 26.07747 | -80.26961 | 1809 ft | 198 kts | 90° |
| 2026-05-05 19:07 | 26.07740 | -80.25489 | 1559 ft | 182 kts | 89° |
| 2026-05-05 19:07 | 26.07733 | -80.24129 | 1333 ft | 169 kts | 89° |
| 2026-05-05 19:07 | 26.07726 | -80.22866 | 1111 ft | 158 kts | 88° |
| 2026-05-05 19:08 | 26.07720 | -80.21689 | 914 ft | 147 kts | 87° |
| 2026-05-05 19:08 | 26.07714 | -80.20585 | 762 ft | 139 kts | 86° |
| 2026-05-05 19:08 | 26.07709 | -80.19526 | 581 ft | 136 kts | 89° |
| 2026-05-05 19:08 | 26.07704 | -80.18499 | 414 ft | 134 kts | 88° |
| 2026-05-05 19:09 | 26.07699 | -80.17462 | 239 ft | 135 kts | 88° |
| 2026-05-05 19:09 | 26.07693 | -80.16430 | 54 ft | 133 kts | 89° |
| 2026-05-05 19:09 | 26.07693 | -80.15515 | 16 ft | 86 kts | 91° |
| 2026-05-05 19:09 | 26.07686 | -80.15041 | 18 ft | 51 kts | 90° |
| 2026-05-05 19:10 | 26.07677 | -80.14756 | 25 ft | 32 kts | 99° |
| 2026-05-05 19:10 | 26.07612 | -80.14556 | 27 ft | 25 kts | 120° |
| 2026-05-05 19:10 | 26.07558 | -80.14416 | 28 ft | 18 kts | 95° |
| 2026-05-05 19:10 | 26.07557 | -80.14283 | 25 ft | 14 kts | 90° |
| 2026-05-05 19:11 | 26.07495 | -80.14220 | 24 ft | 14 kts | 155° |
| 2026-05-05 19:11 | 26.07414 | -80.14190 | 25 ft | 12 kts | 181° |
| 2026-05-05 19:11 | 26.07353 | -80.14193 | 22 ft | 4 kts | 194° |
| 2026-05-05 19:11 | 26.07345 | -80.14213 | 22 ft | 3 kts | 259° |
| 2026-05-05 19:12 | 26.07344 | -80.14233 | 22 ft | 2 kts | 266° |
| 2026-05-05 19:12 | 26.07343 | -80.14241 | 23 ft | 0 kts | 258° |
| 2026-05-05 19:12 | 26.07338 | -80.14248 | 23 ft | 1 kts | 237° |
| 2026-05-05 19:12 | 26.07336 | -80.14256 | 23 ft | 0 kts | 260° |
| 2026-05-05 19:13 | 26.07336 | -80.14258 | 23 ft | 0 kts | 270° |